Afton, Texas
Current Conditions -  °F | °C
As of 4:53 PM on Tuesday 21 Oct 2014 (Local Time) from KCDS Reporting Station
Few Clouds Few Clouds  
Wind Chill: 28°   Ceiling: Unl
Heat Index: 28°   Visibility: 10mi
Dew Point:   Wind: 8mph
Humidity: 31%   Direction: 170°S
Pressure: 30.02"   Gusts: 21mph
Location:  33.76°N, 100.82°W
Report Text: KCDS 212153Z AUTO 17007G18KT 10SM FEW070 28/09 A3002 RMK AO2 SLP143 T02780094
Loading
Personal Weather Stations






























Interactive Weather Map
Tropical Storm Tracking
New forecast layout! Learn more

10-Day Weather Forecast

Advertisements
Track Severe Weather on mobile